Time,TemperatureF,DewpointF,PressureIn,WindDirection,WindDirectionDegrees,WindSpeedMPH,WindSpeedGustMPH,Humidity,HourlyPrecipIn,Conditions,Clouds,dailyrainin,SoftwareType,DateUTC
2013-10-28 00:13:00,60.0,59.0,30.12,East,90,0.0,0.0,95,0.00,,,0.00,,2013-10-28 04:13:00,
2013-10-28 00:23:00,59.0,58.0,30.12,East,90,0.0,0.0,95,0.00,,,0.00,,2013-10-28 04:23:00,
2013-10-28 00:53:00,59.0,58.0,30.12,East,90,0.0,0.0,96,0.00,,,0.00,,2013-10-28 04:53:00,
2013-10-28 01:13:00,59.0,58.0,30.12,East,90,0.0,0.0,96,0.00,,,0.00,,2013-10-28 05:13:00,
2013-10-28 01:22:00,58.0,57.0,30.12,East,90,0.0,0.0,96,0.00,,,0.00,,2013-10-28 05:22:00,
2013-10-28 01:53:00,58.0,57.0,30.11,East,90,0.0,0.0,96,0.00,,,0.00,,2013-10-28 05:53:00,
2013-10-28 02:12:00,59.0,58.0,30.11,East,90,0.0,0.0,97,0.00,,,0.00,,2013-10-28 06:12:00,
2013-10-28 02:22:00,59.0,58.0,30.11,West,276,0.0,1.0,96,0.00,,,0.00,,2013-10-28 06:22:00,
2013-10-28 02:43:00,59.0,58.0,30.11,East,90,0.0,0.0,96,0.00,,,0.00,,2013-10-28 06:43:00,
2013-10-28 02:52:00,59.0,58.0,30.11,East,90,0.0,0.0,96,0.00,,,0.00,,2013-10-28 06:52:00,
2013-10-28 03:22:00,58.0,57.0,30.10,East,90,0.0,0.0,97,0.00,,,0.00,,2013-10-28 07:22:00,
2013-10-28 03:52:00,58.0,57.0,30.10,East,90,0.0,0.0,97,0.00,,,0.00,,2013-10-28 07:52:00,
2013-10-28 04:22:00,58.0,57.0,30.10,East,90,0.0,0.0,97,0.00,,,0.00,,2013-10-28 08:22:00,
2013-10-28 04:52:00,58.0,57.0,30.10,East,90,0.0,0.0,98,0.00,,,0.00,,2013-10-28 08:52:00,
2013-10-28 05:22:00,59.0,58.0,30.10,East,90,0.0,0.0,98,0.00,,,0.00,,2013-10-28 09:22:00,
2013-10-28 05:53:00,59.0,58.0,30.10,East,90,0.0,0.0,97,0.00,,,0.00,,2013-10-28 09:53:00,
2013-10-28 06:23:00,60.0,59.0,30.11,East,90,0.0,0.0,97,0.00,,,0.00,,2013-10-28 10:23:00,
2013-10-28 06:53:00,60.0,59.0,30.11,East,90,0.0,0.0,97,0.00,,,0.00,,2013-10-28 10:53:00,
2013-10-28 07:12:00,60.0,59.0,30.12,East,90,0.0,0.0,97,0.00,,,0.00,,2013-10-28 11:12:00,
2013-10-28 07:22:00,61.0,60.0,30.12,East,90,0.0,0.0,96,0.00,,,0.00,,2013-10-28 11:22:00,
2013-10-28 07:42:00,61.0,60.0,30.13,West,274,0.0,1.0,95,0.00,,,0.00,,2013-10-28 11:42:00,
2013-10-28 07:52:00,61.0,59.0,30.13,West,274,0.0,1.0,94,0.00,,,0.00,,2013-10-28 11:52:00,
2013-10-28 08:21:00,60.0,58.0,30.14,East,90,0.0,0.0,94,0.00,,,0.00,,2013-10-28 12:21:00,
2013-10-28 08:42:00,60.0,59.0,30.14,East,90,0.0,0.0,95,0.00,,,0.00,,2013-10-28 12:42:00,
2013-10-28 08:52:00,61.0,60.0,30.14,East,90,0.0,0.0,95,0.00,,,0.00,,2013-10-28 12:52:00,
2013-10-28 09:11:00,62.0,60.0,30.15,East,90,0.0,0.0,94,0.00,,,0.00,,2013-10-28 13:11:00,
2013-10-28 09:22:00,64.0,61.0,30.15,East,90,0.0,0.0,91,0.00,,,0.00,,2013-10-28 13:22:00,
2013-10-28 09:42:00,65.0,62.0,30.16,East,90,0.0,0.0,90,0.00,,,0.00,,2013-10-28 13:42:00,
2013-10-28 09:52:00,67.0,63.0,30.16,East,90,0.0,0.0,88,0.00,,,0.00,,2013-10-28 13:52:00,
2013-10-28 10:22:00,73.0,66.0,30.16,East,90,0.0,0.0,79,0.00,,,0.00,,2013-10-28 14:22:00,
2013-10-28 10:42:00,76.0,67.0,30.17,SSE,148,0.0,1.0,74,0.00,,,0.00,,2013-10-28 14:42:00,
2013-10-28 10:52:00,77.0,67.0,30.17,North,351,0.0,2.0,72,0.00,,,0.00,,2013-10-28 14:52:00,
2013-10-28 11:22:00,79.0,66.0,30.18,NNE,12,0.0,3.0,65,0.00,,,0.00,,2013-10-28 15:22:00,
2013-10-28 11:43:00,79.0,66.0,30.18,NE,47,0.0,1.0,64,0.00,,,0.00,,2013-10-28 15:43:00,
2013-10-28 11:53:00,80.0,66.0,30.18,NNE,27,0.0,3.0,62,0.00,,,0.00,,2013-10-28 15:53:00,
2013-10-28 12:23:00,82.0,67.0,30.18,ENE,65,0.0,1.0,60,0.00,,,0.00,,2013-10-28 16:23:00,
2013-10-28 12:43:00,81.0,66.0,30.17,East,87,1.0,3.0,61,0.00,,,0.00,,2013-10-28 16:43:00,
2013-10-28 12:53:00,82.0,67.0,30.17,East,99,1.0,3.0,61,0.00,,,0.00,,2013-10-28 16:53:00,
2013-10-28 13:12:00,82.0,66.0,30.16,NE,34,0.0,3.0,59,0.00,,,0.00,,2013-10-28 17:12:00,
2013-10-28 13:23:00,82.0,66.0,30.16,North,9,0.0,3.0,59,0.00,,,0.00,,2013-10-28 17:23:00,
2013-10-28 13:52:00,82.0,66.0,30.15,East,89,0.0,1.0,58,0.00,,,0.00,,2013-10-28 17:52:00,
2013-10-28 14:12:00,83.0,67.0,30.14,NNE,21,1.0,3.0,58,0.00,,,0.00,,2013-10-28 18:12:00,
2013-10-28 14:22:00,82.0,67.0,30.14,ENE,71,0.0,2.0,60,0.00,,,0.00,,2013-10-28 18:22:00,
2013-10-28 14:52:00,82.0,67.0,30.13,North,8,1.0,3.0,60,0.00,,,0.00,,2013-10-28 18:52:00,
2013-10-28 15:22:00,82.0,67.0,30.13,ENE,72,1.0,3.0,61,0.00,,,0.00,,2013-10-28 19:22:00,
2013-10-28 15:42:00,82.0,67.0,30.13,East,84,0.0,3.0,60,0.00,,,0.00,,2013-10-28 19:42:00,
2013-10-28 15:52:00,83.0,67.0,30.13,ENE,62,1.0,4.0,59,0.00,,,0.00,,2013-10-28 19:52:00,
2013-10-28 16:22:00,83.0,67.0,30.13,NE,36,1.0,4.0,58,0.00,,,0.00,,2013-10-28 20:22:00,
2013-10-28 16:52:00,83.0,66.0,30.13,NNE,17,1.0,4.0,57,0.00,,,0.00,,2013-10-28 20:52:00,
2013-10-28 17:11:00,83.0,67.0,30.13,NNE,30,1.0,3.0,58,0.00,,,0.00,,2013-10-28 21:11:00,
2013-10-28 17:22:00,83.0,67.0,30.13,NNE,30,1.0,3.0,58,0.00,,,0.00,,2013-10-28 21:22:00,
2013-10-28 17:54:00,81.0,66.0,30.13,NE,38,0.0,2.0,60,0.00,,,0.00,,2013-10-28 21:54:00,
2013-10-28 18:23:00,80.0,65.0,30.14,North,8,0.0,5.0,61,0.00,,,0.00,,2013-10-28 22:23:00,
2013-10-28 18:53:00,75.0,63.0,30.14,NE,37,0.0,1.0,67,0.00,,,0.00,,2013-10-28 22:53:00,
2013-10-28 19:22:00,73.0,63.0,30.14,East,90,0.0,0.0,72,0.00,,,0.00,,2013-10-28 23:22:00,
2013-10-28 19:42:00,72.0,63.0,30.15,East,90,0.0,0.0,73,0.00,,,0.00,,2013-10-28 23:42:00,
2013-10-28 19:52:00,72.0,63.0,30.15,East,90,0.0,0.0,74,0.00,,,0.00,,2013-10-28 23:52:00,
2013-10-28 20:22:00,70.0,63.0,30.16,East,90,0.0,0.0,79,0.00,,,0.00,,2013-10-29 00:22:00,
2013-10-28 20:42:00,69.0,63.0,30.16,East,90,0.0,0.0,80,0.00,,,0.00,,2013-10-29 00:42:00,
2013-10-28 20:52:00,68.0,63.0,30.17,East,90,0.0,0.0,83,0.00,,,0.00,,2013-10-29 00:52:00,
2013-10-28 21:11:00,68.0,63.0,30.17,East,90,0.0,0.0,83,0.00,,,0.00,,2013-10-29 01:11:00,
2013-10-28 21:22:00,68.0,63.0,30.17,East,90,0.0,0.0,84,0.00,,,0.00,,2013-10-29 01:22:00,
2013-10-28 21:42:00,67.0,62.0,30.18,East,90,0.0,0.0,85,0.00,,,0.00,,2013-10-29 01:42:00,
2013-10-28 21:52:00,67.0,63.0,30.17,East,90,0.0,0.0,86,0.00,,,0.00,,2013-10-29 01:52:00,
2013-10-28 22:21:00,66.0,62.0,30.18,East,90,0.0,0.0,87,0.00,,,0.00,,2013-10-29 02:21:00,
2013-10-28 22:44:00,66.0,63.0,30.18,East,90,0.0,0.0,89,0.00,,,0.00,,2013-10-29 02:44:00,
2013-10-28 22:53:00,66.0,63.0,30.18,East,90,0.0,0.0,89,0.00,,,0.00,,2013-10-29 02:53:00,
2013-10-28 23:27:00,64.0,61.0,30.18,East,90,0.0,0.0,91,0.00,,,0.00,,2013-10-29 03:27:00,
2013-10-28 23:40:00,-999.0,-99.9,30.19,East,90,0.0,0.0,92,0.00,,,0.00,,2013-10-29 03:40:00,
2013-10-28 23:48:00,64.0,62.0,30.19,East,90,0.0,0.0,92,0.00,,,0.00,,2013-10-29 03:48:00,
2013-10-28 23:55:00,63.0,61.0,30.19,East,90,0.0,0.0,93,0.00,,,0.00,,2013-10-29 03:55:00,